sensor_id;sensor_type;location;lat;lon;timestamp;pressure;altitude;pressure_sealevel;temperature;humidity
25650;BME280;13505;45.196;5.696;2023-05-15T06:00:53;98911.66;;;14.89;83.42
25650;BME280;13505;45.196;5.696;2023-05-15T06:05:44;98904.75;;;15.00;82.81
25650;BME280;13505;45.196;5.696;2023-05-15T06:10:34;98908.75;;;15.18;81.96
25650;BME280;13505;45.196;5.696;2023-05-15T06:15:24;98915.47;;;15.11;80.35
25650;BME280;13505;45.196;5.696;2023-05-15T06:20:15;98915.91;;;15.18;81.37
25650;BME280;13505;45.196;5.696;2023-05-15T06:25:06;98920.38;;;15.04;80.74
25650;BME280;13505;45.196;5.696;2023-05-15T06:29:56;98910.91;;;15.00;81.20
25650;BME280;13505;45.196;5.696;2023-05-15T06:34:47;98907.94;;;15.05;81.30
25650;BME280;13505;45.196;5.696;2023-05-15T06:39:37;98911.63;;;15.02;80.50
25650;BME280;13505;45.196;5.696;2023-05-15T06:44:29;98909.31;;;15.11;79.83
25650;BME280;13505;45.196;5.696;2023-05-15T06:49:20;98917.69;;;15.17;79.63
25650;BME280;13505;45.196;5.696;2023-05-15T06:54:10;98909.41;;;15.22;78.98
25650;BME280;13505;45.196;5.696;2023-05-15T06:59:00;98907.38;;;15.89;77.21
25650;BME280;13505;45.196;5.696;2023-05-15T07:03:51;98898.78;;;16.47;73.11
25650;BME280;13505;45.196;5.696;2023-05-15T07:08:41;98909.28;;;16.49;71.87
25650;BME280;13505;45.196;5.696;2023-05-15T07:13:32;98902.34;;;16.70;71.12
25650;BME280;13505;45.196;5.696;2023-05-15T07:18:22;98895.38;;;16.92;69.92
25650;BME280;13505;45.196;5.696;2023-05-15T07:23:12;98895.13;;;17.42;67.36
25650;BME280;13505;45.196;5.696;2023-05-15T07:28:03;98884.09;;;17.58;67.10
25650;BME280;13505;45.196;5.696;2023-05-15T07:32:53;98884.09;;;18.14;64.65
25650;BME280;13505;45.196;5.696;2023-05-15T07:37:43;98879.75;;;18.13;63.47
25650;BME280;13505;45.196;5.696;2023-05-15T07:42:35;98892.44;;;17.42;66.68
25650;BME280;13505;45.196;5.696;2023-05-15T07:47:25;98872.22;;;17.28;66.53
25650;BME280;13505;45.196;5.696;2023-05-15T07:52:16;98878.38;;;17.75;64.83
25650;BME280;13505;45.196;5.696;2023-05-15T07:57:07;98884.31;;;17.44;64.91
25650;BME280;13505;45.196;5.696;2023-05-15T08:01:57;98876.91;;;17.02;66.19
25650;BME280;13505;45.196;5.696;2023-05-15T08:06:48;98875.19;;;16.90;66.81
25650;BME280;13505;45.196;5.696;2023-05-15T08:11:38;98875.75;;;16.93;66.15
25650;BME280;13505;45.196;5.696;2023-05-15T08:16:28;98874.75;;;16.71;66.73
25650;BME280;13505;45.196;5.696;2023-05-15T08:21:19;98872.72;;;16.75;66.70
25650;BME280;13505;45.196;5.696;2023-05-15T08:26:09;98871.59;;;16.66;66.54
25650;BME280;13505;45.196;5.696;2023-05-15T08:30:59;98874.50;;;16.63;66.59
25650;BME280;13505;45.196;5.696;2023-05-15T08:35:50;98871.91;;;16.50;66.41
25650;BME280;13505;45.196;5.696;2023-05-15T08:40:45;98879.56;;;16.55;66.52
25650;BME280;13505;45.196;5.696;2023-05-15T08:45:36;98862.03;;;16.64;67.17
25650;BME280;13505;45.196;5.696;2023-05-15T08:50:27;98846.25;;;16.96;67.16
25650;BME280;13505;45.196;5.696;2023-05-15T08:55:17;98848.59;;;17.12;65.23
25650;BME280;13505;45.196;5.696;2023-05-15T09:00:08;98849.41;;;17.36;64.50
25650;BME280;13505;45.196;5.696;2023-05-15T09:05:04;98845.97;;;17.68;62.32
25650;BME280;13505;45.196;5.696;2023-05-15T09:09:56;98844.25;;;17.78;62.70
25650;BME280;13505;45.196;5.696;2023-05-15T09:14:47;98854.56;;;17.83;62.76
25650;BME280;13505;45.196;5.696;2023-05-15T09:19:38;98852.44;;;17.65;61.81
25650;BME280;13505;45.196;5.696;2023-05-15T09:24:36;98841.06;;;17.63;62.94
25650;BME280;13505;45.196;5.696;2023-05-15T09:29:28;98834.97;;;17.61;62.75
25650;BME280;13505;45.196;5.696;2023-05-15T09:34:28;98826.72;;;17.76;62.85
25650;BME280;13505;45.196;5.696;2023-05-15T09:39:21;98832.00;;;17.87;62.26
25650;BME280;13505;45.196;5.696;2023-05-15T09:44:19;98819.84;;;17.94;61.41
25650;BME280;13505;45.196;5.696;2023-05-15T09:49:14;98819.47;;;17.99;61.41
25650;BME280;13505;45.196;5.696;2023-05-15T09:54:04;98810.06;;;18.27;60.13
25650;BME280;13505;45.196;5.696;2023-05-15T09:58:56;98811.47;;;18.74;58.80
25650;BME280;13505;45.196;5.696;2023-05-15T10:03:58;98797.50;;;19.74;56.82
25650;BME280;13505;45.196;5.696;2023-05-15T10:08:53;98793.03;;;20.24;53.76
25650;BME280;13505;45.196;5.696;2023-05-15T10:13:44;98784.47;;;20.10;53.85
25650;BME280;13505;45.196;5.696;2023-05-15T10:18:35;98774.22;;;20.63;52.32
25650;BME280;13505;45.196;5.696;2023-05-15T10:23:29;98770.09;;;20.88;51.19
25650;BME280;13505;45.196;5.696;2023-05-15T10:28:21;98763.66;;;20.61;50.95
25650;BME280;13505;45.196;5.696;2023-05-15T10:33:12;98767.66;;;20.28;51.77
25650;BME280;13505;45.196;5.696;2023-05-15T10:38:03;98761.72;;;20.44;52.09
25650;BME280;13505;45.196;5.696;2023-05-15T10:42:58;98752.03;;;20.13;52.28
25650;BME280;13505;45.196;5.696;2023-05-15T10:47:49;98755.84;;;19.71;52.69
25650;BME280;13505;45.196;5.696;2023-05-15T10:52:41;98746.63;;;19.54;54.82
25650;BME280;13505;45.196;5.696;2023-05-15T10:57:31;98749.31;;;19.34;55.13
25650;BME280;13505;45.196;5.696;2023-05-15T11:02:23;98753.44;;;19.07;55.95
25650;BME280;13505;45.196;5.696;2023-05-15T11:07:15;98748.38;;;19.04;56.26
25650;BME280;13505;45.196;5.696;2023-05-15T11:12:10;98753.81;;;19.44;55.99
25650;BME280;13505;45.196;5.696;2023-05-15T11:17:02;98749.88;;;19.58;54.04
25650;BME280;13505;45.196;5.696;2023-05-15T11:27:06;98743.84;;;19.56;53.36
25650;BME280;13505;45.196;5.696;2023-05-15T11:31:56;98739.75;;;19.61;53.65
25650;BME280;13505;45.196;5.696;2023-05-15T11:36:46;98738.38;;;19.87;53.98
25650;BME280;13505;45.196;5.696;2023-05-15T11:41:37;98726.41;;;19.81;52.35
25650;BME280;13505;45.196;5.696;2023-05-15T11:46:28;98728.41;;;19.99;52.74
25650;BME280;13505;45.196;5.696;2023-05-15T11:51:23;98728.94;;;20.70;51.59
25650;BME280;13505;45.196;5.696;2023-05-15T11:56:25;98717.72;;;21.22;50.13
25650;BME280;13505;45.196;5.696;2023-05-15T12:01:19;98706.25;;;21.66;48.82
25650;BME280;13505;45.196;5.696;2023-05-15T12:06:10;98700.72;;;22.49;48.10
25650;BME280;13505;45.196;5.696;2023-05-15T12:11:01;98702.16;;;22.43;47.20
25650;BME280;13505;45.196;5.696;2023-05-15T12:15:53;98693.16;;;22.26;47.21
25650;BME280;13505;45.196;5.696;2023-05-15T12:20:44;98690.16;;;22.29;47.43
25650;BME280;13505;45.196;5.696;2023-05-15T12:25:36;98670.25;;;22.66;46.42
25650;BME280;13505;45.196;5.696;2023-05-15T12:30:26;98661.50;;;22.64;46.33
25650;BME280;13505;45.196;5.696;2023-05-15T12:35:17;98662.38;;;23.16;45.72
25650;BME280;13505;45.196;5.696;2023-05-15T12:40:08;98669.50;;;23.42;45.03
25650;BME280;13505;45.196;5.696;2023-05-15T12:45:00;98665.97;;;23.50;46.65
25650;BME280;13505;45.196;5.696;2023-05-15T12:49:57;98683.88;;;22.47;47.35
25650;BME280;13505;45.196;5.696;2023-05-15T12:54:47;98681.34;;;21.92;50.69
25650;BME280;13505;45.196;5.696;2023-05-15T12:59:39;98678.66;;;21.56;50.01
25650;BME280;13505;45.196;5.696;2023-05-15T13:04:32;98678.56;;;21.11;51.08
25650;BME280;13505;45.196;5.696;2023-05-15T13:09:22;98680.16;;;20.66;51.93
25650;BME280;13505;45.196;5.696;2023-05-15T13:14:16;98693.19;;;20.51;51.58
25650;BME280;13505;45.196;5.696;2023-05-15T13:19:07;98668.00;;;20.72;50.40
25650;BME280;13505;45.196;5.696;2023-05-15T13:23:58;98667.72;;;21.31;49.11
25650;BME280;13505;45.196;5.696;2023-05-15T13:28:49;98640.78;;;21.77;48.93
25650;BME280;13505;45.196;5.696;2023-05-15T13:33:39;98641.50;;;22.32;48.00
25650;BME280;13505;45.196;5.696;2023-05-15T13:38:29;98632.25;;;22.53;46.91
25650;BME280;13505;45.196;5.696;2023-05-15T13:43:20;98640.25;;;21.92;48.72
25650;BME280;13505;45.196;5.696;2023-05-15T13:48:10;98652.16;;;21.53;52.51
25650;BME280;13505;45.196;5.696;2023-05-15T13:53:00;98669.06;;;20.61;63.49
25650;BME280;13505;45.196;5.696;2023-05-15T13:57:51;98680.31;;;20.07;65.51
25650;BME280;13505;45.196;5.696;2023-05-15T14:02:42;98690.47;;;19.44;67.27
25650;BME280;13505;45.196;5.696;2023-05-15T14:07:33;98692.38;;;19.03;69.85
25650;BME280;13505;45.196;5.696;2023-05-15T14:12:23;98701.66;;;18.67;73.27
25650;BME280;13505;45.196;5.696;2023-05-15T14:17:15;98678.28;;;18.60;76.81
25650;BME280;13505;45.196;5.696;2023-05-15T14:22:05;98676.50;;;18.70;76.07
25650;BME280;13505;45.196;5.696;2023-05-15T14:26:56;98672.59;;;18.84;75.64
25650;BME280;13505;45.196;5.696;2023-05-15T14:31:46;98670.38;;;18.89;74.30
25650;BME280;13505;45.196;5.696;2023-05-15T14:36:37;98667.88;;;18.97;72.07
25650;BME280;13505;45.196;5.696;2023-05-15T14:41:27;98657.38;;;19.16;68.77
25650;BME280;13505;45.196;5.696;2023-05-15T14:46:17;98650.47;;;19.13;65.97
25650;BME280;13505;45.196;5.696;2023-05-15T14:51:08;98640.66;;;19.14;65.69
25650;BME280;13505;45.196;5.696;2023-05-15T14:55:58;98635.72;;;19.38;64.90
25650;BME280;13505;45.196;5.696;2023-05-15T15:00:48;98631.94;;;19.61;63.70
25650;BME280;13505;45.196;5.696;2023-05-15T15:05:39;98631.75;;;20.02;61.70
25650;BME280;13505;45.196;5.696;2023-05-15T15:10:33;98632.88;;;20.09;59.78
25650;BME280;13505;45.196;5.696;2023-05-15T15:15:24;98641.91;;;20.08;59.06
25650;BME280;13505;45.196;5.696;2023-05-15T15:20:17;98634.81;;;20.17;59.53
25650;BME280;13505;45.196;5.696;2023-05-15T15:25:07;98638.25;;;20.37;57.96
25650;BME280;13505;45.196;5.696;2023-05-15T15:29:58;98653.69;;;20.15;57.55
25650;BME280;13505;45.196;5.696;2023-05-15T15:34:48;98670.34;;;19.79;61.62
25650;BME280;13505;45.196;5.696;2023-05-15T15:39:39;98680.06;;;19.41;63.68
25650;BME280;13505;45.196;5.696;2023-05-15T15:44:32;98687.91;;;19.13;63.54
25650;BME280;13505;45.196;5.696;2023-05-15T15:49:22;98701.56;;;18.26;64.70
25650;BME280;13505;45.196;5.696;2023-05-15T15:54:12;98705.44;;;18.12;63.64
25650;BME280;13505;45.196;5.696;2023-05-15T15:59:03;98692.06;;;17.91;62.01
25650;BME280;13505;45.196;5.696;2023-05-15T16:03:53;98681.13;;;17.94;61.14
25650;BME280;13505;45.196;5.696;2023-05-15T16:08:43;98672.13;;;18.07;61.46
25650;BME280;13505;45.196;5.696;2023-05-15T16:13:34;98675.06;;;18.35;64.13
25650;BME280;13505;45.196;5.696;2023-05-15T16:18:24;98667.66;;;18.79;63.26
25650;BME280;13505;45.196;5.696;2023-05-15T16:23:14;98667.81;;;18.78;60.86
25650;BME280;13505;45.196;5.696;2023-05-15T16:28:05;98665.00;;;19.20;61.12
25650;BME280;13505;45.196;5.696;2023-05-15T16:32:56;98666.13;;;19.57;60.11
25650;BME280;13505;45.196;5.696;2023-05-15T16:37:46;98664.72;;;19.73;57.09
25650;BME280;13505;45.196;5.696;2023-05-15T16:42:37;98649.63;;;20.01;53.39
25650;BME280;13505;45.196;5.696;2023-05-15T16:47:27;98656.38;;;20.15;54.25
25650;BME280;13505;45.196;5.696;2023-05-15T16:52:18;98647.94;;;20.00;53.29
25650;BME280;13505;45.196;5.696;2023-05-15T16:57:08;98653.59;;;19.97;53.50
25650;BME280;13505;45.196;5.696;2023-05-15T17:02:03;98661.91;;;19.74;54.25
25650;BME280;13505;45.196;5.696;2023-05-15T17:06:58;98671.63;;;19.65;54.10
25650;BME280;13505;45.196;5.696;2023-05-15T17:11:48;98670.63;;;19.37;54.82
25650;BME280;13505;45.196;5.696;2023-05-15T17:16:39;98666.25;;;19.36;53.74
25650;BME280;13505;45.196;5.696;2023-05-15T17:21:31;98673.44;;;19.35;53.13
25650;BME280;13505;45.196;5.696;2023-05-15T17:26:24;98667.94;;;19.27;51.60
25650;BME280;13505;45.196;5.696;2023-05-15T17:31:15;98669.22;;;19.23;51.43
25650;BME280;13505;45.196;5.696;2023-05-15T17:36:07;98676.38;;;19.13;52.04
25650;BME280;13505;45.196;5.696;2023-05-15T17:41:00;98680.16;;;19.10;52.57
25650;BME280;13505;45.196;5.696;2023-05-15T17:45:51;98684.41;;;19.13;51.76
25650;BME280;13505;45.196;5.696;2023-05-15T17:50:41;98696.03;;;19.02;51.51
25650;BME280;13505;45.196;5.696;2023-05-15T17:55:31;98698.19;;;18.87;53.85
